sensor_id;sensor_type;location;lat;lon;timestamp;P1;durP1;ratioP1;P2;durP2;ratioP2
59846;SDS011;45728;48.788;2.302;2022-07-23T00:00:34;31.70;;;28.40;;
59846;SDS011;45728;48.788;2.302;2022-07-23T00:03:00;30.88;;;27.67;;
59846;SDS011;45728;48.788;2.302;2022-07-23T00:05:27;31.70;;;28.13;;
59846;SDS011;45728;48.788;2.302;2022-07-23T00:07:53;31.75;;;27.40;;
59846;SDS011;45728;48.788;2.302;2022-07-23T00:10:19;31.13;;;27.83;;
59846;SDS011;45728;48.788;2.302;2022-07-23T00:12:45;33.60;;;30.00;;
59846;SDS011;45728;48.788;2.302;2022-07-23T00:15:11;30.85;;;27.67;;
59846;SDS011;45728;48.788;2.302;2022-07-23T00:17:38;29.15;;;26.30;;
59846;SDS011;45728;48.788;2.302;2022-07-23T00:20:04;31.33;;;28.25;;
59846;SDS011;45728;48.788;2.302;2022-07-23T00:22:30;31.88;;;28.38;;
59846;SDS011;45728;48.788;2.302;2022-07-23T00:24:57;30.67;;;26.98;;
59846;SDS011;45728;48.788;2.302;2022-07-23T00:27:23;32.25;;;28.95;;
59846;SDS011;45728;48.788;2.302;2022-07-23T00:29:49;31.83;;;28.38;;
59846;SDS011;45728;48.788;2.302;2022-07-23T00:32:15;30.67;;;27.45;;
59846;SDS011;45728;48.788;2.302;2022-07-23T00:34:41;32.38;;;28.10;;
59846;SDS011;45728;48.788;2.302;2022-07-23T00:37:08;32.13;;;28.77;;
59846;SDS011;45728;48.788;2.302;2022-07-23T00:39:34;35.35;;;28.83;;
59846;SDS011;45728;48.788;2.302;2022-07-23T00:42:00;32.88;;;28.55;;
59846;SDS011;45728;48.788;2.302;2022-07-23T00:44:26;31.73;;;28.38;;
59846;SDS011;45728;48.788;2.302;2022-07-23T00:46:57;31.92;;;28.65;;
59846;SDS011;45728;48.788;2.302;2022-07-23T00:49:25;33.17;;;29.58;;
59846;SDS011;45728;48.788;2.302;2022-07-23T00:51:55;34.25;;;30.73;;
59846;SDS011;45728;48.788;2.302;2022-07-23T00:54:25;32.42;;;29.23;;
59846;SDS011;45728;48.788;2.302;2022-07-23T00:56:52;31.63;;;28.23;;
59846;SDS011;45728;48.788;2.302;2022-07-23T00:59:18;32.30;;;28.98;;
59846;SDS011;45728;48.788;2.302;2022-07-23T01:01:45;34.30;;;29.05;;
59846;SDS011;45728;48.788;2.302;2022-07-23T01:04:14;32.20;;;28.80;;
59846;SDS011;45728;48.788;2.302;2022-07-23T01:06:41;31.85;;;28.63;;
59846;SDS011;45728;48.788;2.302;2022-07-23T01:09:08;31.30;;;28.05;;
59846;SDS011;45728;48.788;2.302;2022-07-23T01:11:35;32.08;;;28.55;;
59846;SDS011;45728;48.788;2.302;2022-07-23T01:14:12;31.45;;;28.27;;
59846;SDS011;45728;48.788;2.302;2022-07-23T01:16:43;35.25;;;29.45;;
59846;SDS011;45728;48.788;2.302;2022-07-23T01:19:10;31.70;;;28.33;;
59846;SDS011;45728;48.788;2.302;2022-07-23T01:21:40;33.38;;;29.23;;
59846;SDS011;45728;48.788;2.302;2022-07-23T01:24:11;33.90;;;29.55;;
59846;SDS011;45728;48.788;2.302;2022-07-23T01:26:39;32.55;;;29.08;;
59846;SDS011;45728;48.788;2.302;2022-07-23T01:29:07;32.60;;;29.08;;
59846;SDS011;45728;48.788;2.302;2022-07-23T01:31:33;32.08;;;28.73;;
59846;SDS011;45728;48.788;2.302;2022-07-23T01:33:59;32.78;;;28.48;;
59846;SDS011;45728;48.788;2.302;2022-07-23T01:36:26;29.50;;;26.30;;
59846;SDS011;45728;48.788;2.302;2022-07-23T01:38:52;30.23;;;27.00;;
59846;SDS011;45728;48.788;2.302;2022-07-23T01:41:18;30.40;;;27.25;;
59846;SDS011;45728;48.788;2.302;2022-07-23T01:43:44;29.63;;;26.42;;
59846;SDS011;45728;48.788;2.302;2022-07-23T01:46:10;30.75;;;27.45;;
59846;SDS011;45728;48.788;2.302;2022-07-23T01:48:36;28.20;;;25.02;;
59846;SDS011;45728;48.788;2.302;2022-07-23T01:51:03;28.38;;;25.02;;
59846;SDS011;45728;48.788;2.302;2022-07-23T01:53:29;31.25;;;25.83;;
59846;SDS011;45728;48.788;2.302;2022-07-23T01:55:57;26.40;;;23.08;;
59846;SDS011;45728;48.788;2.302;2022-07-23T01:58:24;27.75;;;24.58;;
59846;SDS011;45728;48.788;2.302;2022-07-23T02:00:50;26.73;;;23.83;;
59846;SDS011;45728;48.788;2.302;2022-07-23T02:03:16;26.70;;;23.90;;
59846;SDS011;45728;48.788;2.302;2022-07-23T02:05:42;27.80;;;24.45;;
59846;SDS011;45728;48.788;2.302;2022-07-23T02:08:09;29.27;;;23.55;;
59846;SDS011;45728;48.788;2.302;2022-07-23T02:10:35;27.42;;;24.15;;
59846;SDS011;45728;48.788;2.302;2022-07-23T02:13:01;30.27;;;23.75;;
59846;SDS011;45728;48.788;2.302;2022-07-23T02:15:27;26.45;;;23.65;;
59846;SDS011;45728;48.788;2.302;2022-07-23T02:17:54;24.52;;;22.02;;
59846;SDS011;45728;48.788;2.302;2022-07-23T02:20:21;26.55;;;22.60;;
59846;SDS011;45728;48.788;2.302;2022-07-23T02:22:48;24.67;;;22.17;;
59846;SDS011;45728;48.788;2.302;2022-07-23T02:25:14;23.65;;;21.23;;
59846;SDS011;45728;48.788;2.302;2022-07-23T02:27:40;26.63;;;21.77;;
59846;SDS011;45728;48.788;2.302;2022-07-23T02:30:07;22.15;;;19.75;;
59846;SDS011;45728;48.788;2.302;2022-07-23T02:32:34;23.17;;;20.65;;
59846;SDS011;45728;48.788;2.302;2022-07-23T02:35:00;25.48;;;21.23;;
59846;SDS011;45728;48.788;2.302;2022-07-23T02:37:27;22.58;;;19.92;;
59846;SDS011;45728;48.788;2.302;2022-07-23T02:39:53;21.50;;;19.30;;
59846;SDS011;45728;48.788;2.302;2022-07-23T02:42:20;22.60;;;20.13;;
59846;SDS011;45728;48.788;2.302;2022-07-23T02:44:46;21.42;;;19.23;;
59846;SDS011;45728;48.788;2.302;2022-07-23T02:47:12;22.73;;;19.52;;
59846;SDS011;45728;48.788;2.302;2022-07-23T02:49:38;21.13;;;18.88;;
59846;SDS011;45728;48.788;2.302;2022-07-23T02:52:04;21.65;;;19.35;;
59846;SDS011;45728;48.788;2.302;2022-07-23T02:54:30;24.63;;;20.52;;
59846;SDS011;45728;48.788;2.302;2022-07-23T02:56:56;24.40;;;20.02;;
59846;SDS011;45728;48.788;2.302;2022-07-23T02:59:22;25.80;;;20.80;;
59846;SDS011;45728;48.788;2.302;2022-07-23T03:01:48;23.48;;;20.00;;
59846;SDS011;45728;48.788;2.302;2022-07-23T03:04:15;23.85;;;19.45;;
59846;SDS011;45728;48.788;2.302;2022-07-23T03:06:41;23.77;;;20.38;;
59846;SDS011;45728;48.788;2.302;2022-07-23T03:09:07;24.17;;;20.60;;
59846;SDS011;45728;48.788;2.302;2022-07-23T03:11:33;23.92;;;20.02;;
59846;SDS011;45728;48.788;2.302;2022-07-23T03:13:59;24.08;;;19.17;;
59846;SDS011;45728;48.788;2.302;2022-07-23T03:16:25;23.80;;;20.55;;
59846;SDS011;45728;48.788;2.302;2022-07-23T03:18:51;23.42;;;19.98;;
59846;SDS011;45728;48.788;2.302;2022-07-23T03:21:17;24.50;;;19.92;;
59846;SDS011;45728;48.788;2.302;2022-07-23T03:23:43;22.13;;;19.70;;
59846;SDS011;45728;48.788;2.302;2022-07-23T03:26:09;24.08;;;19.80;;
59846;SDS011;45728;48.788;2.302;2022-07-23T03:28:35;23.05;;;20.27;;
59846;SDS011;45728;48.788;2.302;2022-07-23T03:31:01;21.60;;;19.13;;
59846;SDS011;45728;48.788;2.302;2022-07-23T03:33:27;22.95;;;20.58;;
59846;SDS011;45728;48.788;2.302;2022-07-23T03:35:53;23.83;;;19.88;;
59846;SDS011;45728;48.788;2.302;2022-07-23T03:38:19;22.98;;;20.23;;
59846;SDS011;45728;48.788;2.302;2022-07-23T03:40:45;22.95;;;20.63;;
59846;SDS011;45728;48.788;2.302;2022-07-23T03:43:11;25.45;;;22.70;;
59846;SDS011;45728;48.788;2.302;2022-07-23T03:45:37;25.70;;;23.00;;
59846;SDS011;45728;48.788;2.302;2022-07-23T03:48:03;29.25;;;24.95;;
59846;SDS011;45728;48.788;2.302;2022-07-23T03:50:30;26.63;;;24.02;;
59846;SDS011;45728;48.788;2.302;2022-07-23T03:52:56;27.33;;;24.42;;
59846;SDS011;45728;48.788;2.302;2022-07-23T03:55:22;26.40;;;23.67;;
59846;SDS011;45728;48.788;2.302;2022-07-23T03:57:48;29.27;;;26.25;;
59846;SDS011;45728;48.788;2.302;2022-07-23T04:00:14;30.42;;;25.83;;
59846;SDS011;45728;48.788;2.302;2022-07-23T04:02:40;31.10;;;26.95;;
59846;SDS011;45728;48.788;2.302;2022-07-23T04:05:06;31.30;;;27.85;;
59846;SDS011;45728;48.788;2.302;2022-07-23T04:07:33;33.80;;;27.48;;
59846;SDS011;45728;48.788;2.302;2022-07-23T04:09:59;30.55;;;27.25;;
59846;SDS011;45728;48.788;2.302;2022-07-23T04:12:25;31.77;;;28.20;;
59846;SDS011;45728;48.788;2.302;2022-07-23T04:14:51;33.75;;;29.98;;
59846;SDS011;45728;48.788;2.302;2022-07-23T04:17:17;33.10;;;29.35;;
59846;SDS011;45728;48.788;2.302;2022-07-23T04:19:43;33.13;;;28.70;;
59846;SDS011;45728;48.788;2.302;2022-07-23T04:22:12;39.72;;;30.55;;
59846;SDS011;45728;48.788;2.302;2022-07-23T04:24:38;36.00;;;30.63;;
59846;SDS011;45728;48.788;2.302;2022-07-23T04:27:04;35.22;;;31.52;;
59846;SDS011;45728;48.788;2.302;2022-07-23T04:29:31;36.42;;;30.30;;
59846;SDS011;45728;48.788;2.302;2022-07-23T04:31:57;37.75;;;30.98;;
59846;SDS011;45728;48.788;2.302;2022-07-23T04:34:23;34.85;;;29.52;;
59846;SDS011;45728;48.788;2.302;2022-07-23T04:36:52;36.50;;;31.20;;
59846;SDS011;45728;48.788;2.302;2022-07-23T04:39:19;33.88;;;30.13;;
59846;SDS011;45728;48.788;2.302;2022-07-23T04:41:45;34.17;;;30.48;;
59846;SDS011;45728;48.788;2.302;2022-07-23T04:44:12;35.10;;;28.83;;
59846;SDS011;45728;48.788;2.302;2022-07-23T04:46:38;34.65;;;28.45;;
59846;SDS011;45728;48.788;2.302;2022-07-23T04:49:04;33.70;;;27.45;;
59846;SDS011;45728;48.788;2.302;2022-07-23T04:51:30;32.50;;;26.10;;
59846;SDS011;45728;48.788;2.302;2022-07-23T04:53:56;31.35;;;25.65;;
59846;SDS011;45728;48.788;2.302;2022-07-23T04:56:22;29.33;;;22.63;;
59846;SDS011;45728;48.788;2.302;2022-07-23T04:58:48;30.88;;;23.67;;
59846;SDS011;45728;48.788;2.302;2022-07-23T05:01:15;26.17;;;21.58;;
59846;SDS011;45728;48.788;2.302;2022-07-23T05:03:41;25.30;;;20.20;;
59846;SDS011;45728;48.788;2.302;2022-07-23T05:06:07;28.30;;;19.98;;
59846;SDS011;45728;48.788;2.302;2022-07-23T05:08:33;26.13;;;20.55;;
59846;SDS011;45728;48.788;2.302;2022-07-23T05:10:59;27.15;;;20.05;;
59846;SDS011;45728;48.788;2.302;2022-07-23T05:13:25;28.90;;;19.65;;
59846;SDS011;45728;48.788;2.302;2022-07-23T05:15:51;30.02;;;20.33;;
59846;SDS011;45728;48.788;2.302;2022-07-23T05:18:17;25.48;;;19.63;;
59846;SDS011;45728;48.788;2.302;2022-07-23T05:20:43;25.52;;;19.10;;
59846;SDS011;45728;48.788;2.302;2022-07-23T05:23:09;29.40;;;20.75;;
59846;SDS011;45728;48.788;2.302;2022-07-23T05:25:35;23.02;;;20.52;;
59846;SDS011;45728;48.788;2.302;2022-07-23T05:28:02;25.92;;;19.27;;
59846;SDS011;45728;48.788;2.302;2022-07-23T05:30:28;27.25;;;20.90;;
59846;SDS011;45728;48.788;2.302;2022-07-23T05:32:54;25.33;;;20.63;;
59846;SDS011;45728;48.788;2.302;2022-07-23T05:35:20;24.17;;;19.85;;
59846;SDS011;45728;48.788;2.302;2022-07-23T05:37:46;26.90;;;21.27;;
59846;SDS011;45728;48.788;2.302;2022-07-23T05:40:13;28.35;;;22.05;;
59846;SDS011;45728;48.788;2.302;2022-07-23T05:42:39;27.05;;;21.73;;
59846;SDS011;45728;48.788;2.302;2022-07-23T05:45:07;28.50;;;21.73;;
59846;SDS011;45728;48.788;2.302;2022-07-23T05:50:07;31.10;;;24.40;;
59846;SDS011;45728;48.788;2.302;2022-07-23T05:52:33;30.10;;;25.17;;
59846;SDS011;45728;48.788;2.302;2022-07-23T05:54:59;34.67;;;25.50;;
59846;SDS011;45728;48.788;2.302;2022-07-23T05:57:25;34.33;;;27.15;;
59846;SDS011;45728;48.788;2.302;2022-07-23T05:59:51;31.02;;;27.08;;
59846;SDS011;45728;48.788;2.302;2022-07-23T06:02:17;32.75;;;27.42;;
59846;SDS011;45728;48.788;2.302;2022-07-23T06:04:43;33.95;;;27.30;;
59846;SDS011;45728;48.788;2.302;2022-07-23T06:07:09;33.10;;;28.60;;
59846;SDS011;45728;48.788;2.302;2022-07-23T06:09:35;32.22;;;27.45;;
59846;SDS011;45728;48.788;2.302;2022-07-23T06:12:01;32.65;;;26.60;;
59846;SDS011;45728;48.788;2.302;2022-07-23T06:14:27;39.17;;;28.63;;
59846;SDS011;45728;48.788;2.302;2022-07-23T06:16:54;32.83;;;26.27;;
59846;SDS011;45728;48.788;2.302;2022-07-23T06:19:20;33.38;;;27.55;;
59846;SDS011;45728;48.788;2.302;2022-07-23T06:21:46;32.95;;;26.27;;
59846;SDS011;45728;48.788;2.302;2022-07-23T06:24:12;30.90;;;26.98;;
59846;SDS011;45728;48.788;2.302;2022-07-23T06:26:38;32.70;;;24.95;;
59846;SDS011;45728;48.788;2.302;2022-07-23T06:29:04;29.60;;;26.40;;
59846;SDS011;45728;48.788;2.302;2022-07-23T06:31:30;29.83;;;24.90;;
59846;SDS011;45728;48.788;2.302;2022-07-23T06:33:56;34.80;;;27.90;;
59846;SDS011;45728;48.788;2.302;2022-07-23T06:36:22;36.05;;;27.67;;
59846;SDS011;45728;48.788;2.302;2022-07-23T06:38:48;41.72;;;30.52;;
59846;SDS011;45728;48.788;2.302;2022-07-23T06:41:14;39.33;;;30.13;;
59846;SDS011;45728;48.788;2.302;2022-07-23T06:43:40;40.42;;;31.17;;
59846;SDS011;45728;48.788;2.302;2022-07-23T06:46:06;39.75;;;30.25;;
59846;SDS011;45728;48.788;2.302;2022-07-23T06:48:32;39.40;;;29.92;;
59846;SDS011;45728;48.788;2.302;2022-07-23T06:51:01;44.38;;;32.83;;
59846;SDS011;45728;48.788;2.302;2022-07-23T06:53:28;41.92;;;31.88;;
59846;SDS011;45728;48.788;2.302;2022-07-23T06:55:54;43.60;;;32.22;;
59846;SDS011;45728;48.788;2.302;2022-07-23T06:58:20;44.60;;;32.60;;
59846;SDS011;45728;48.788;2.302;2022-07-23T07:00:46;47.00;;;31.35;;
59846;SDS011;45728;48.788;2.302;2022-07-23T07:03:12;41.50;;;31.33;;
59846;SDS011;45728;48.788;2.302;2022-07-23T07:05:38;44.55;;;32.15;;
59846;SDS011;45728;48.788;2.302;2022-07-23T07:08:07;42.78;;;31.77;;
59846;SDS011;45728;48.788;2.302;2022-07-23T07:10:33;42.42;;;31.05;;
59846;SDS011;45728;48.788;2.302;2022-07-23T07:12:59;40.78;;;29.95;;
59846;SDS011;45728;48.788;2.302;2022-07-23T07:15:25;40.83;;;30.10;;
59846;SDS011;45728;48.788;2.302;2022-07-23T07:17:51;48.58;;;32.45;;
59846;SDS011;45728;48.788;2.302;2022-07-23T07:20:17;38.53;;;29.95;;
59846;SDS011;45728;48.788;2.302;2022-07-23T07:22:44;45.25;;;33.63;;
59846;SDS011;45728;48.788;2.302;2022-07-23T07:25:10;40.50;;;30.58;;
59846;SDS011;45728;48.788;2.302;2022-07-23T07:27:36;38.58;;;29.33;;
59846;SDS011;45728;48.788;2.302;2022-07-23T07:30:03;42.50;;;30.75;;
59846;SDS011;45728;48.788;2.302;2022-07-23T07:32:29;37.88;;;29.35;;
59846;SDS011;45728;48.788;2.302;2022-07-23T07:34:58;42.38;;;31.67;;
59846;SDS011;45728;48.788;2.302;2022-07-23T07:37:24;42.40;;;30.67;;
59846;SDS011;45728;48.788;2.302;2022-07-23T07:39:50;46.45;;;29.65;;
59846;SDS011;45728;48.788;2.302;2022-07-23T07:42:16;48.13;;;31.48;;
59846;SDS011;45728;48.788;2.302;2022-07-23T07:44:42;45.58;;;29.95;;
59846;SDS011;45728;48.788;2.302;2022-07-23T07:47:08;49.75;;;29.48;;
59846;SDS011;45728;48.788;2.302;2022-07-23T07:49:34;49.42;;;30.55;;
59846;SDS011;45728;48.788;2.302;2022-07-23T07:52:00;48.92;;;29.52;;
59846;SDS011;45728;48.788;2.302;2022-07-23T07:54:26;47.45;;;31.13;;
59846;SDS011;45728;48.788;2.302;2022-07-23T07:56:52;46.95;;;29.98;;
59846;SDS011;45728;48.788;2.302;2022-07-23T07:59:18;52.45;;;33.75;;
59846;SDS011;45728;48.788;2.302;2022-07-23T08:01:44;45.95;;;30.83;;
59846;SDS011;45728;48.788;2.302;2022-07-23T08:04:10;52.78;;;31.08;;
59846;SDS011;45728;48.788;2.302;2022-07-23T08:06:36;47.22;;;30.98;;
59846;SDS011;45728;48.788;2.302;2022-07-23T08:09:03;51.67;;;31.88;;
59846;SDS011;45728;48.788;2.302;2022-07-23T08:11:29;46.33;;;32.50;;
59846;SDS011;45728;48.788;2.302;2022-07-23T08:13:55;52.03;;;31.48;;
59846;SDS011;45728;48.788;2.302;2022-07-23T08:16:21;46.65;;;30.83;;
59846;SDS011;45728;48.788;2.302;2022-07-23T08:18:47;50.40;;;31.80;;
59846;SDS011;45728;48.788;2.302;2022-07-23T08:21:13;47.65;;;31.50;;
59846;SDS011;45728;48.788;2.302;2022-07-23T08:23:39;55.85;;;33.83;;
59846;SDS011;45728;48.788;2.302;2022-07-23T08:26:05;52.90;;;32.17;;
59846;SDS011;45728;48.788;2.302;2022-07-23T08:28:32;52.50;;;33.05;;
59846;SDS011;45728;48.788;2.302;2022-07-23T08:30:58;52.47;;;32.30;;
59846;SDS011;45728;48.788;2.302;2022-07-23T08:33:25;57.35;;;33.40;;
59846;SDS011;45728;48.788;2.302;2022-07-23T08:35:51;48.53;;;32.05;;
59846;SDS011;45728;48.788;2.302;2022-07-23T08:38:19;47.17;;;29.98;;
59846;SDS011;45728;48.788;2.302;2022-07-23T08:40:47;46.58;;;29.85;;
59846;SDS011;45728;48.788;2.302;2022-07-23T08:43:16;51.00;;;30.20;;
59846;SDS011;45728;48.788;2.302;2022-07-23T08:45:44;47.80;;;30.77;;
59846;SDS011;45728;48.788;2.302;2022-07-23T08:48:15;43.30;;;29.90;;
59846;SDS011;45728;48.788;2.302;2022-07-23T08:50:44;43.67;;;29.52;;
59846;SDS011;45728;48.788;2.302;2022-07-23T08:53:12;46.05;;;28.27;;
59846;SDS011;45728;48.788;2.302;2022-07-23T08:55:38;39.75;;;27.75;;
59846;SDS011;45728;48.788;2.302;2022-07-23T08:58:04;36.92;;;27.17;;
59846;SDS011;45728;48.788;2.302;2022-07-23T09:00:31;43.38;;;27.88;;
59846;SDS011;45728;48.788;2.302;2022-07-23T09:02:57;36.38;;;28.13;;
59846;SDS011;45728;48.788;2.302;2022-07-23T09:05:24;36.05;;;26.30;;
59846;SDS011;45728;48.788;2.302;2022-07-23T09:10:55;38.08;;;26.67;;
59846;SDS011;45728;48.788;2.302;2022-07-23T09:13:33;36.45;;;26.35;;
59846;SDS011;45728;48.788;2.302;2022-07-23T09:16:17;38.33;;;26.55;;
59846;SDS011;45728;48.788;2.302;2022-07-23T09:21:12;38.75;;;26.65;;
59846;SDS011;45728;48.788;2.302;2022-07-23T09:26:26;33.20;;;26.05;;
59846;SDS011;45728;48.788;2.302;2022-07-23T09:29:11;34.15;;;26.55;;
59846;SDS011;45728;48.788;2.302;2022-07-23T09:34:11;35.03;;;25.35;;
59846;SDS011;45728;48.788;2.302;2022-07-23T09:36:42;37.50;;;26.55;;
59846;SDS011;45728;48.788;2.302;2022-07-23T09:39:09;34.38;;;24.85;;
59846;SDS011;45728;48.788;2.302;2022-07-23T09:41:39;32.10;;;24.73;;
59846;SDS011;45728;48.788;2.302;2022-07-23T09:44:08;33.53;;;26.02;;
59846;SDS011;45728;48.788;2.302;2022-07-23T09:46:36;32.58;;;24.58;;
59846;SDS011;45728;48.788;2.302;2022-07-23T09:49:09;38.53;;;27.30;;
59846;SDS011;45728;48.788;2.302;2022-07-23T09:51:45;35.25;;;26.67;;
59846;SDS011;45728;48.788;2.302;2022-07-23T09:54:23;30.05;;;24.88;;
59846;SDS011;45728;48.788;2.302;2022-07-23T09:57:01;27.90;;;22.73;;
59846;SDS011;45728;48.788;2.302;2022-07-23T09:59:31;34.85;;;24.67;;
59846;SDS011;45728;48.788;2.302;2022-07-23T10:02:00;34.70;;;25.83;;
59846;SDS011;45728;48.788;2.302;2022-07-23T10:04:27;34.38;;;24.30;;
59846;SDS011;45728;48.788;2.302;2022-07-23T10:06:56;28.02;;;23.50;;
59846;SDS011;45728;48.788;2.302;2022-07-23T10:09:26;33.28;;;24.90;;
59846;SDS011;45728;48.788;2.302;2022-07-23T10:12:00;33.50;;;23.23;;
59846;SDS011;45728;48.788;2.302;2022-07-23T10:14:47;29.50;;;22.45;;
59846;SDS011;45728;48.788;2.302;2022-07-23T10:17:13;28.45;;;24.08;;
59846;SDS011;45728;48.788;2.302;2022-07-23T10:19:40;30.13;;;22.92;;
59846;SDS011;45728;48.788;2.302;2022-07-23T10:22:11;27.55;;;21.00;;
59846;SDS011;45728;48.788;2.302;2022-07-23T10:32:46;23.15;;;19.55;;
59846;SDS011;45728;48.788;2.302;2022-07-23T10:37:56;25.70;;;20.48;;
59846;SDS011;45728;48.788;2.302;2022-07-23T10:40:28;22.73;;;18.90;;
59846;SDS011;45728;48.788;2.302;2022-07-23T10:42:58;27.10;;;20.60;;
59846;SDS011;45728;48.788;2.302;2022-07-23T10:51:09;22.20;;;18.98;;
59846;SDS011;45728;48.788;2.302;2022-07-23T10:56:17;25.95;;;20.63;;
59846;SDS011;45728;48.788;2.302;2022-07-23T10:59:14;25.98;;;20.63;;
59846;SDS011;45728;48.788;2.302;2022-07-23T11:01:40;27.38;;;20.27;;
59846;SDS011;45728;48.788;2.302;2022-07-23T11:04:06;25.15;;;19.55;;
59846;SDS011;45728;48.788;2.302;2022-07-23T11:09:24;24.70;;;19.40;;
59846;SDS011;45728;48.788;2.302;2022-07-23T11:17:32;23.17;;;18.70;;
59846;SDS011;45728;48.788;2.302;2022-07-23T11:20:19;25.85;;;19.35;;
59846;SDS011;45728;48.788;2.302;2022-07-23T11:22:48;23.20;;;18.77;;
59846;SDS011;45728;48.788;2.302;2022-07-23T11:27:55;25.83;;;20.50;;
59846;SDS011;45728;48.788;2.302;2022-07-23T11:30:45;25.40;;;20.08;;
59846;SDS011;45728;48.788;2.302;2022-07-23T11:35:43;24.15;;;19.60;;
59846;SDS011;45728;48.788;2.302;2022-07-23T11:40:48;22.45;;;19.48;;
59846;SDS011;45728;48.788;2.302;2022-07-23T11:43:20;22.70;;;18.98;;
59846;SDS011;45728;48.788;2.302;2022-07-23T11:45:48;23.52;;;18.60;;
59846;SDS011;45728;48.788;2.302;2022-07-23T11:48:19;19.77;;;17.70;;
59846;SDS011;45728;48.788;2.302;2022-07-23T11:50:51;23.55;;;17.50;;
59846;SDS011;45728;48.788;2.302;2022-07-23T11:53:30;21.83;;;17.45;;
59846;SDS011;45728;48.788;2.302;2022-07-23T11:56:04;25.90;;;18.10;;
59846;SDS011;45728;48.788;2.302;2022-07-23T11:58:32;21.67;;;19.15;;
59846;SDS011;45728;48.788;2.302;2022-07-23T12:00:58;22.67;;;18.58;;
59846;SDS011;45728;48.788;2.302;2022-07-23T12:03:24;24.13;;;19.25;;
59846;SDS011;45728;48.788;2.302;2022-07-23T12:05:55;22.20;;;18.77;;
59846;SDS011;45728;48.788;2.302;2022-07-23T12:08:22;20.40;;;18.20;;
59846;SDS011;45728;48.788;2.302;2022-07-23T12:10:49;22.70;;;18.05;;
59846;SDS011;45728;48.788;2.302;2022-07-23T12:13:16;18.55;;;16.48;;
59846;SDS011;45728;48.788;2.302;2022-07-23T12:15:47;17.63;;;15.20;;
59846;SDS011;45728;48.788;2.302;2022-07-23T12:18:22;17.75;;;15.85;;
59846;SDS011;45728;48.788;2.302;2022-07-23T12:20:50;17.20;;;14.88;;
59846;SDS011;45728;48.788;2.302;2022-07-23T12:23:22;16.70;;;14.43;;
59846;SDS011;45728;48.788;2.302;2022-07-23T12:25:49;16.70;;;14.93;;
59846;SDS011;45728;48.788;2.302;2022-07-23T12:28:18;21.23;;;16.98;;
59846;SDS011;45728;48.788;2.302;2022-07-23T12:30:46;17.67;;;15.20;;
59846;SDS011;45728;48.788;2.302;2022-07-23T12:33:29;17.73;;;15.55;;
59846;SDS011;45728;48.788;2.302;2022-07-23T12:35:57;17.52;;;15.25;;
59846;SDS011;45728;48.788;2.302;2022-07-23T12:38:25;16.92;;;15.13;;
59846;SDS011;45728;48.788;2.302;2022-07-23T12:40:59;16.77;;;15.00;;
59846;SDS011;45728;48.788;2.302;2022-07-23T12:43:29;15.77;;;13.48;;
59846;SDS011;45728;48.788;2.302;2022-07-23T12:46:02;14.50;;;12.88;;
59846;SDS011;45728;48.788;2.302;2022-07-23T12:53:39;18.75;;;14.95;;
59846;SDS011;45728;48.788;2.302;2022-07-23T12:56:11;29.67;;;14.00;;
59846;SDS011;45728;48.788;2.302;2022-07-23T12:58:53;18.65;;;14.45;;
59846;SDS011;45728;48.788;2.302;2022-07-23T13:03:56;17.08;;;13.98;;
59846;SDS011;45728;48.788;2.302;2022-07-23T13:06:28;17.15;;;13.82;;
59846;SDS011;45728;48.788;2.302;2022-07-23T13:09:05;17.48;;;14.57;;
59846;SDS011;45728;48.788;2.302;2022-07-23T13:11:33;16.30;;;14.35;;
59846;SDS011;45728;48.788;2.302;2022-07-23T13:13:59;16.48;;;14.25;;
59846;SDS011;45728;48.788;2.302;2022-07-23T13:16:26;15.13;;;13.02;;
59846;SDS011;45728;48.788;2.302;2022-07-23T13:18:53;14.35;;;12.80;;
59846;SDS011;45728;48.788;2.302;2022-07-23T13:21:19;17.98;;;14.23;;
59846;SDS011;45728;48.788;2.302;2022-07-23T13:23:45;15.48;;;12.98;;
59846;SDS011;45728;48.788;2.302;2022-07-23T13:26:11;15.45;;;13.45;;
59846;SDS011;45728;48.788;2.302;2022-07-23T13:28:37;13.57;;;12.27;;
59846;SDS011;45728;48.788;2.302;2022-07-23T13:31:04;14.60;;;13.10;;
59846;SDS011;45728;48.788;2.302;2022-07-23T13:33:30;17.02;;;13.95;;
59846;SDS011;45728;48.788;2.302;2022-07-23T13:35:56;13.38;;;12.02;;
59846;SDS011;45728;48.788;2.302;2022-07-23T13:38:22;14.93;;;13.18;;
59846;SDS011;45728;48.788;2.302;2022-07-23T13:40:49;19.40;;;13.05;;
59846;SDS011;45728;48.788;2.302;2022-07-23T13:43:17;14.90;;;12.02;;
59846;SDS011;45728;48.788;2.302;2022-07-23T13:45:44;14.68;;;12.95;;
59846;SDS011;45728;48.788;2.302;2022-07-23T13:48:11;14.38;;;12.48;;
59846;SDS011;45728;48.788;2.302;2022-07-23T13:50:38;16.38;;;12.40;;
59846;SDS011;45728;48.788;2.302;2022-07-23T13:53:24;19.95;;;13.70;;
59846;SDS011;45728;48.788;2.302;2022-07-23T13:55:50;15.88;;;13.13;;
59846;SDS011;45728;48.788;2.302;2022-07-23T13:58:18;14.40;;;12.90;;
59846;SDS011;45728;48.788;2.302;2022-07-23T14:00:45;13.85;;;11.82;;
59846;SDS011;45728;48.788;2.302;2022-07-23T14:03:13;13.27;;;11.98;;
59846;SDS011;45728;48.788;2.302;2022-07-23T14:05:40;14.05;;;11.80;;
59846;SDS011;45728;48.788;2.302;2022-07-23T14:08:07;14.95;;;13.10;;
59846;SDS011;45728;48.788;2.302;2022-07-23T14:10:33;14.25;;;11.85;;
59846;SDS011;45728;48.788;2.302;2022-07-23T14:12:59;16.55;;;11.38;;
59846;SDS011;45728;48.788;2.302;2022-07-23T14:15:26;14.95;;;11.00;;
59846;SDS011;45728;48.788;2.302;2022-07-23T14:17:54;12.55;;;10.18;;
59846;SDS011;45728;48.788;2.302;2022-07-23T14:20:20;10.98;;;9.77;;
59846;SDS011;45728;48.788;2.302;2022-07-23T14:22:47;11.02;;;9.93;;
59846;SDS011;45728;48.788;2.302;2022-07-23T14:25:14;10.98;;;8.95;;
59846;SDS011;45728;48.788;2.302;2022-07-23T14:27:40;11.70;;;9.32;;
59846;SDS011;45728;48.788;2.302;2022-07-23T14:30:07;10.45;;;8.73;;
59846;SDS011;45728;48.788;2.302;2022-07-23T14:32:34;10.65;;;9.57;;
59846;SDS011;45728;48.788;2.302;2022-07-23T14:35:01;11.57;;;8.55;;
59846;SDS011;45728;48.788;2.302;2022-07-23T14:37:28;12.00;;;9.50;;
59846;SDS011;45728;48.788;2.302;2022-07-23T14:39:55;11.88;;;9.60;;
59846;SDS011;45728;48.788;2.302;2022-07-23T14:42:21;10.30;;;9.27;;
59846;SDS011;45728;48.788;2.302;2022-07-23T14:44:47;9.63;;;8.65;;
59846;SDS011;45728;48.788;2.302;2022-07-23T14:47:13;10.73;;;9.23;;
59846;SDS011;45728;48.788;2.302;2022-07-23T14:49:39;11.20;;;9.07;;
59846;SDS011;45728;48.788;2.302;2022-07-23T14:52:05;9.55;;;8.13;;
59846;SDS011;45728;48.788;2.302;2022-07-23T14:54:32;10.23;;;8.02;;
59846;SDS011;45728;48.788;2.302;2022-07-23T14:56:59;12.10;;;8.63;;
59846;SDS011;45728;48.788;2.302;2022-07-23T14:59:26;9.88;;;8.98;;
59846;SDS011;45728;48.788;2.302;2022-07-23T15:01:53;9.07;;;8.27;;
59846;SDS011;45728;48.788;2.302;2022-07-23T15:04:20;10.20;;;8.82;;
59846;SDS011;45728;48.788;2.302;2022-07-23T15:06:46;8.70;;;7.90;;
59846;SDS011;45728;48.788;2.302;2022-07-23T15:09:13;9.45;;;8.18;;
59846;SDS011;45728;48.788;2.302;2022-07-23T15:11:39;8.30;;;7.50;;
59846;SDS011;45728;48.788;2.302;2022-07-23T15:14:07;10.77;;;8.02;;
59846;SDS011;45728;48.788;2.302;2022-07-23T15:16:33;8.43;;;7.43;;
59846;SDS011;45728;48.788;2.302;2022-07-23T15:19:00;8.35;;;7.55;;
59846;SDS011;45728;48.788;2.302;2022-07-23T15:21:28;8.80;;;7.93;;